sensor_id;sensor_type;location;lat;lon;timestamp;temperature;humidity
12025;DHT22;6073;53.230;10.444;2023-06-10T00:00:44;14.20;99.90
12025;DHT22;6073;53.230;10.444;2023-06-10T00:03:10;14.10;99.90
12025;DHT22;6073;53.230;10.444;2023-06-10T00:05:36;14.00;99.90
12025;DHT22;6073;53.230;10.444;2023-06-10T00:08:04;14.00;99.90
12025;DHT22;6073;53.230;10.444;2023-06-10T00:10:36;13.90;99.90
12025;DHT22;6073;53.230;10.444;2023-06-10T00:13:03;13.90;99.90
12025;DHT22;6073;53.230;10.444;2023-06-10T00:15:29;13.90;99.90
12025;DHT22;6073;53.230;10.444;2023-06-10T00:17:55;13.80;99.90
12025;DHT22;6073;53.230;10.444;2023-06-10T00:20:20;13.80;99.90
12025;DHT22;6073;53.230;10.444;2023-06-10T00:22:49;13.70;99.90
12025;DHT22;6073;53.230;10.444;2023-06-10T00:25:15;13.70;99.90
12025;DHT22;6073;53.230;10.444;2023-06-10T00:27:40;13.60;99.90
12025;DHT22;6073;53.230;10.444;2023-06-10T00:30:06;13.60;99.90
12025;DHT22;6073;53.230;10.444;2023-06-10T00:32:33;13.70;99.90
12025;DHT22;6073;53.230;10.444;2023-06-10T00:34:58;13.80;99.90
12025;DHT22;6073;53.230;10.444;2023-06-10T00:37:24;13.80;99.90
12025;DHT22;6073;53.230;10.444;2023-06-10T00:39:50;13.90;99.90
12025;DHT22;6073;53.230;10.444;2023-06-10T00:42:15;14.00;99.90
12025;DHT22;6073;53.230;10.444;2023-06-10T00:44:41;14.00;99.90
12025;DHT22;6073;53.230;10.444;2023-06-10T00:47:07;14.00;99.90
12025;DHT22;6073;53.230;10.444;2023-06-10T00:49:33;14.10;99.90
12025;DHT22;6073;53.230;10.444;2023-06-10T00:52:00;14.10;99.90
12025;DHT22;6073;53.230;10.444;2023-06-10T00:54:25;14.10;99.90
12025;DHT22;6073;53.230;10.444;2023-06-10T00:56:52;14.20;99.90
12025;DHT22;6073;53.230;10.444;2023-06-10T00:59:18;14.30;99.90
12025;DHT22;6073;53.230;10.444;2023-06-10T01:01:45;14.20;99.90
12025;DHT22;6073;53.230;10.444;2023-06-10T01:04:13;14.20;99.90
12025;DHT22;6073;53.230;10.444;2023-06-10T01:12:31;14.20;99.90
12025;DHT22;6073;53.230;10.444;2023-06-10T01:14:59;14.20;99.90
12025;DHT22;6073;53.230;10.444;2023-06-10T01:17:26;14.20;99.90
12025;DHT22;6073;53.230;10.444;2023-06-10T01:19:56;14.10;99.90
12025;DHT22;6073;53.230;10.444;2023-06-10T01:22:26;14.10;99.90
12025;DHT22;6073;53.230;10.444;2023-06-10T01:24:58;14.10;99.90
12025;DHT22;6073;53.230;10.444;2023-06-10T01:27:26;14.10;99.90
12025;DHT22;6073;53.230;10.444;2023-06-10T01:30:03;14.00;99.90
12025;DHT22;6073;53.230;10.444;2023-06-10T01:32:35;14.00;99.90
12025;DHT22;6073;53.230;10.444;2023-06-10T01:35:03;14.00;99.90
12025;DHT22;6073;53.230;10.444;2023-06-10T01:37:31;14.00;99.90
12025;DHT22;6073;53.230;10.444;2023-06-10T01:39:59;13.90;99.90
12025;DHT22;6073;53.230;10.444;2023-06-10T01:42:25;14.00;99.90
12025;DHT22;6073;53.230;10.444;2023-06-10T01:44:50;13.90;99.90
12025;DHT22;6073;53.230;10.444;2023-06-10T01:47:16;13.90;99.90
12025;DHT22;6073;53.230;10.444;2023-06-10T01:49:42;13.90;99.90
12025;DHT22;6073;53.230;10.444;2023-06-10T01:52:07;14.00;99.90
12025;DHT22;6073;53.230;10.444;2023-06-10T01:54:33;14.00;99.90
12025;DHT22;6073;53.230;10.444;2023-06-10T01:57:00;13.90;99.90
12025;DHT22;6073;53.230;10.444;2023-06-10T01:59:26;13.90;99.90
12025;DHT22;6073;53.230;10.444;2023-06-10T02:01:52;13.90;99.90
12025;DHT22;6073;53.230;10.444;2023-06-10T02:04:17;13.90;99.90
12025;DHT22;6073;53.230;10.444;2023-06-10T02:06:43;13.80;99.90
12025;DHT22;6073;53.230;10.444;2023-06-10T02:09:09;13.80;99.90
12025;DHT22;6073;53.230;10.444;2023-06-10T02:11:34;13.80;99.90
12025;DHT22;6073;53.230;10.444;2023-06-10T02:14:00;13.90;99.90
12025;DHT22;6073;53.230;10.444;2023-06-10T02:16:25;13.80;99.90
12025;DHT22;6073;53.230;10.444;2023-06-10T02:18:51;13.80;99.90
12025;DHT22;6073;53.230;10.444;2023-06-10T02:21:17;13.80;99.90
12025;DHT22;6073;53.230;10.444;2023-06-10T02:23:43;13.80;99.90
12025;DHT22;6073;53.230;10.444;2023-06-10T02:26:08;13.80;99.90
12025;DHT22;6073;53.230;10.444;2023-06-10T02:28:34;13.80;99.90
12025;DHT22;6073;53.230;10.444;2023-06-10T02:30:59;13.80;99.90
12025;DHT22;6073;53.230;10.444;2023-06-10T02:33:25;13.80;99.90
12025;DHT22;6073;53.230;10.444;2023-06-10T02:35:52;13.80;99.90
12025;DHT22;6073;53.230;10.444;2023-06-10T02:38:18;13.70;99.90
12025;DHT22;6073;53.230;10.444;2023-06-10T02:43:13;13.70;99.90
12025;DHT22;6073;53.230;10.444;2023-06-10T02:45:39;13.70;99.90
12025;DHT22;6073;53.230;10.444;2023-06-10T02:48:05;13.70;99.90
12025;DHT22;6073;53.230;10.444;2023-06-10T02:50:31;13.70;99.90
12025;DHT22;6073;53.230;10.444;2023-06-10T02:52:56;13.70;99.90
12025;DHT22;6073;53.230;10.444;2023-06-10T02:55:22;13.80;99.90
12025;DHT22;6073;53.230;10.444;2023-06-10T03:08:05;13.80;99.90
12025;DHT22;6073;53.230;10.444;2023-06-10T03:10:31;13.80;99.90
12025;DHT22;6073;53.230;10.444;2023-06-10T03:12:58;13.90;99.90
12025;DHT22;6073;53.230;10.444;2023-06-10T03:15:24;13.90;99.90
12025;DHT22;6073;53.230;10.444;2023-06-10T03:17:50;13.80;99.90
12025;DHT22;6073;53.230;10.444;2023-06-10T03:20:15;13.80;99.90
12025;DHT22;6073;53.230;10.444;2023-06-10T03:22:42;13.70;99.90
12025;DHT22;6073;53.230;10.444;2023-06-10T03:25:08;13.80;99.90
12025;DHT22;6073;53.230;10.444;2023-06-10T03:27:39;13.80;99.90
12025;DHT22;6073;53.230;10.444;2023-06-10T03:30:06;13.80;99.90
12025;DHT22;6073;53.230;10.444;2023-06-10T03:32:31;13.80;99.90
12025;DHT22;6073;53.230;10.444;2023-06-10T03:34:57;13.90;99.90
12025;DHT22;6073;53.230;10.444;2023-06-10T03:37:24;14.00;99.90
12025;DHT22;6073;53.230;10.444;2023-06-10T03:39:49;13.90;99.90
12025;DHT22;6073;53.230;10.444;2023-06-10T03:42:15;13.90;99.90
12025;DHT22;6073;53.230;10.444;2023-06-10T03:44:41;14.00;99.90
12025;DHT22;6073;53.230;10.444;2023-06-10T03:47:06;14.00;99.90
12025;DHT22;6073;53.230;10.444;2023-06-10T03:49:32;14.00;99.90
12025;DHT22;6073;53.230;10.444;2023-06-10T03:51:58;13.90;99.90
12025;DHT22;6073;53.230;10.444;2023-06-10T03:54:24;14.00;99.90
12025;DHT22;6073;53.230;10.444;2023-06-10T03:56:50;13.90;99.90
12025;DHT22;6073;53.230;10.444;2023-06-10T03:59:16;14.00;99.90
12025;DHT22;6073;53.230;10.444;2023-06-10T04:01:42;14.00;99.90
12025;DHT22;6073;53.230;10.444;2023-06-10T04:04:09;13.90;99.90
12025;DHT22;6073;53.230;10.444;2023-06-10T04:06:34;13.90;99.90
12025;DHT22;6073;53.230;10.444;2023-06-10T04:09:00;13.90;99.90
12025;DHT22;6073;53.230;10.444;2023-06-10T04:11:25;14.00;99.90
12025;DHT22;6073;53.230;10.444;2023-06-10T04:13:51;13.90;99.90
12025;DHT22;6073;53.230;10.444;2023-06-10T04:16:17;14.00;99.90
12025;DHT22;6073;53.230;10.444;2023-06-10T04:18:42;14.00;99.90
12025;DHT22;6073;53.230;10.444;2023-06-10T04:21:08;14.10;99.90
12025;DHT22;6073;53.230;10.444;2023-06-10T04:23:35;14.10;99.90
12025;DHT22;6073;53.230;10.444;2023-06-10T04:26:02;14.20;99.90
12025;DHT22;6073;53.230;10.444;2023-06-10T04:28:27;14.30;99.90
12025;DHT22;6073;53.230;10.444;2023-06-10T04:30:53;14.40;99.90
12025;DHT22;6073;53.230;10.444;2023-06-10T04:33:19;14.40;99.90
12025;DHT22;6073;53.230;10.444;2023-06-10T04:35:44;14.40;99.90
12025;DHT22;6073;53.230;10.444;2023-06-10T04:38:13;14.50;99.90
12025;DHT22;6073;53.230;10.444;2023-06-10T04:40:39;14.50;99.90
12025;DHT22;6073;53.230;10.444;2023-06-10T04:43:04;14.60;99.90
12025;DHT22;6073;53.230;10.444;2023-06-10T04:45:30;14.60;99.90
12025;DHT22;6073;53.230;10.444;2023-06-10T04:47:56;14.60;99.90
12025;DHT22;6073;53.230;10.444;2023-06-10T04:50:23;14.60;99.90
12025;DHT22;6073;53.230;10.444;2023-06-10T04:52:49;14.70;99.90
12025;DHT22;6073;53.230;10.444;2023-06-10T04:55:15;14.60;99.90
12025;DHT22;6073;53.230;10.444;2023-06-10T04:57:41;14.80;99.90
12025;DHT22;6073;53.230;10.444;2023-06-10T05:00:07;14.80;99.90
12025;DHT22;6073;53.230;10.444;2023-06-10T05:02:33;14.90;99.90
12025;DHT22;6073;53.230;10.444;2023-06-10T05:04:59;14.90;99.90
12025;DHT22;6073;53.230;10.444;2023-06-10T05:07:25;14.90;99.90
12025;DHT22;6073;53.230;10.444;2023-06-10T05:09:51;14.90;99.90
12025;DHT22;6073;53.230;10.444;2023-06-10T05:12:16;15.00;99.90
12025;DHT22;6073;53.230;10.444;2023-06-10T05:14:42;15.10;99.90
12025;DHT22;6073;53.230;10.444;2023-06-10T05:17:07;15.20;99.90
12025;DHT22;6073;53.230;10.444;2023-06-10T05:19:33;15.30;99.90
12025;DHT22;6073;53.230;10.444;2023-06-10T05:22:01;15.50;99.90
12025;DHT22;6073;53.230;10.444;2023-06-10T05:24:27;15.80;99.90
12025;DHT22;6073;53.230;10.444;2023-06-10T05:26:52;15.80;99.90
12025;DHT22;6073;53.230;10.444;2023-06-10T05:29:18;15.90;99.90
12025;DHT22;6073;53.230;10.444;2023-06-10T05:31:45;16.10;99.90
12025;DHT22;6073;53.230;10.444;2023-06-10T05:34:10;16.20;99.90
12025;DHT22;6073;53.230;10.444;2023-06-10T05:36:36;16.20;99.90
12025;DHT22;6073;53.230;10.444;2023-06-10T05:39:01;16.20;99.90
12025;DHT22;6073;53.230;10.444;2023-06-10T05:41:27;16.40;99.90
12025;DHT22;6073;53.230;10.444;2023-06-10T05:43:53;16.60;99.90
12025;DHT22;6073;53.230;10.444;2023-06-10T05:46:19;16.60;99.90
12025;DHT22;6073;53.230;10.444;2023-06-10T05:48:45;17.10;99.90
12025;DHT22;6073;53.230;10.444;2023-06-10T05:51:10;17.80;99.90
12025;DHT22;6073;53.230;10.444;2023-06-10T05:53:36;18.10;99.90
12025;DHT22;6073;53.230;10.444;2023-06-10T05:56:02;18.70;99.90
12025;DHT22;6073;53.230;10.444;2023-06-10T05:58:27;19.80;99.90
12025;DHT22;6073;53.230;10.444;2023-06-10T06:00:53;20.30;99.90
12025;DHT22;6073;53.230;10.444;2023-06-10T06:03:18;20.60;99.90
12025;DHT22;6073;53.230;10.444;2023-06-10T06:05:44;20.80;99.90
12025;DHT22;6073;53.230;10.444;2023-06-10T06:08:11;21.60;99.90
12025;DHT22;6073;53.230;10.444;2023-06-10T06:10:38;22.30;99.90
12025;DHT22;6073;53.230;10.444;2023-06-10T06:13:04;21.60;99.90
12025;DHT22;6073;53.230;10.444;2023-06-10T06:15:29;21.70;99.90
12025;DHT22;6073;53.230;10.444;2023-06-10T06:17:55;22.10;99.90
12025;DHT22;6073;53.230;10.444;2023-06-10T06:20:22;23.30;99.90
12025;DHT22;6073;53.230;10.444;2023-06-10T06:22:48;23.10;99.90
12025;DHT22;6073;53.230;10.444;2023-06-10T06:25:13;22.70;99.90
12025;DHT22;6073;53.230;10.444;2023-06-10T06:27:39;23.10;99.90
12025;DHT22;6073;53.230;10.444;2023-06-10T06:30:05;24.00;99.90
12025;DHT22;6073;53.230;10.444;2023-06-10T06:32:31;23.10;99.90
12025;DHT22;6073;53.230;10.444;2023-06-10T06:34:56;23.00;99.90
12025;DHT22;6073;53.230;10.444;2023-06-10T06:37:23;23.40;99.90
12025;DHT22;6073;53.230;10.444;2023-06-10T06:39:52;23.70;99.90
12025;DHT22;6073;53.230;10.444;2023-06-10T06:42:18;23.80;99.90
12025;DHT22;6073;53.230;10.444;2023-06-10T06:44:44;23.40;99.90
12025;DHT22;6073;53.230;10.444;2023-06-10T06:47:10;23.60;99.90
12025;DHT22;6073;53.230;10.444;2023-06-10T06:49:35;23.60;99.90
12025;DHT22;6073;53.230;10.444;2023-06-10T06:52:01;23.30;99.90
12025;DHT22;6073;53.230;10.444;2023-06-10T06:54:27;23.50;99.90
12025;DHT22;6073;53.230;10.444;2023-06-10T06:56:52;23.30;99.90
12025;DHT22;6073;53.230;10.444;2023-06-10T06:59:18;23.20;99.90
12025;DHT22;6073;53.230;10.444;2023-06-10T07:01:45;23.50;99.90
12025;DHT22;6073;53.230;10.444;2023-06-10T07:04:11;23.90;99.90
12025;DHT22;6073;53.230;10.444;2023-06-10T07:06:36;24.10;99.90
12025;DHT22;6073;53.230;10.444;2023-06-10T07:09:03;24.50;99.90
12025;DHT22;6073;53.230;10.444;2023-06-10T07:11:29;24.80;99.90
12025;DHT22;6073;53.230;10.444;2023-06-10T07:13:55;24.60;99.90
12025;DHT22;6073;53.230;10.444;2023-06-10T07:16:21;25.90;99.90
12025;DHT22;6073;53.230;10.444;2023-06-10T07:18:46;26.00;99.90
12025;DHT22;6073;53.230;10.444;2023-06-10T07:21:12;25.50;99.90
12025;DHT22;6073;53.230;10.444;2023-06-10T07:23:37;26.30;99.90
12025;DHT22;6073;53.230;10.444;2023-06-10T07:26:06;26.20;99.90
12025;DHT22;6073;53.230;10.444;2023-06-10T07:28:33;26.20;99.90
12025;DHT22;6073;53.230;10.444;2023-06-10T07:30:58;25.60;99.90
12025;DHT22;6073;53.230;10.444;2023-06-10T07:33:24;25.80;99.90
12025;DHT22;6073;53.230;10.444;2023-06-10T07:35:49;25.80;99.90
12025;DHT22;6073;53.230;10.444;2023-06-10T07:38:15;25.70;99.90
12025;DHT22;6073;53.230;10.444;2023-06-10T07:40:40;25.70;99.90
12025;DHT22;6073;53.230;10.444;2023-06-10T07:43:06;25.40;99.90
12025;DHT22;6073;53.230;10.444;2023-06-10T07:45:31;25.90;99.90
12025;DHT22;6073;53.230;10.444;2023-06-10T07:47:57;26.90;99.90
12025;DHT22;6073;53.230;10.444;2023-06-10T07:50:22;26.80;99.90
12025;DHT22;6073;53.230;10.444;2023-06-10T07:52:48;27.00;99.90
12025;DHT22;6073;53.230;10.444;2023-06-10T07:55:13;26.40;99.90
12025;DHT22;6073;53.230;10.444;2023-06-10T07:57:39;26.00;99.90
12025;DHT22;6073;53.230;10.444;2023-06-10T08:00:05;25.90;99.90
12025;DHT22;6073;53.230;10.444;2023-06-10T08:02:31;25.50;99.90
12025;DHT22;6073;53.230;10.444;2023-06-10T08:04:57;26.10;99.90
12025;DHT22;6073;53.230;10.444;2023-06-10T08:07:22;26.50;99.90
12025;DHT22;6073;53.230;10.444;2023-06-10T08:09:48;27.60;99.90
12025;DHT22;6073;53.230;10.444;2023-06-10T08:12:13;27.30;99.90
12025;DHT22;6073;53.230;10.444;2023-06-10T08:14:39;26.70;99.90
12025;DHT22;6073;53.230;10.444;2023-06-10T08:17:05;27.10;99.90
12025;DHT22;6073;53.230;10.444;2023-06-10T08:19:31;26.90;99.90
12025;DHT22;6073;53.230;10.444;2023-06-10T08:21:57;26.90;99.90
12025;DHT22;6073;53.230;10.444;2023-06-10T08:24:23;27.20;99.90
12025;DHT22;6073;53.230;10.444;2023-06-10T08:26:48;26.90;99.90
12025;DHT22;6073;53.230;10.444;2023-06-10T08:29:14;26.80;99.90
12025;DHT22;6073;53.230;10.444;2023-06-10T08:31:43;26.50;99.90
12025;DHT22;6073;53.230;10.444;2023-06-10T08:34:09;26.80;99.90
12025;DHT22;6073;53.230;10.444;2023-06-10T08:36:35;27.30;99.90
12025;DHT22;6073;53.230;10.444;2023-06-10T08:39:01;27.30;99.90
12025;DHT22;6073;53.230;10.444;2023-06-10T08:41:28;27.60;99.90
12025;DHT22;6073;53.230;10.444;2023-06-10T08:44:17;28.00;99.90
12025;DHT22;6073;53.230;10.444;2023-06-10T08:46:46;26.80;99.90
12025;DHT22;6073;53.230;10.444;2023-06-10T08:49:17;26.60;99.90
12025;DHT22;6073;53.230;10.444;2023-06-10T08:51:43;26.70;99.90
12025;DHT22;6073;53.230;10.444;2023-06-10T08:54:17;27.30;99.90
12025;DHT22;6073;53.230;10.444;2023-06-10T08:56:45;27.50;99.90
12025;DHT22;6073;53.230;10.444;2023-06-10T08:59:13;26.90;99.90
12025;DHT22;6073;53.230;10.444;2023-06-10T09:01:42;27.30;99.90
12025;DHT22;6073;53.230;10.444;2023-06-10T09:04:08;27.60;99.90
12025;DHT22;6073;53.230;10.444;2023-06-10T09:06:34;28.00;99.90
12025;DHT22;6073;53.230;10.444;2023-06-10T09:09:01;27.80;99.90
12025;DHT22;6073;53.230;10.444;2023-06-10T09:11:27;28.00;99.90
12025;DHT22;6073;53.230;10.444;2023-06-10T09:13:53;28.20;99.90
12025;DHT22;6073;53.230;10.444;2023-06-10T09:16:18;28.30;99.90
12025;DHT22;6073;53.230;10.444;2023-06-10T09:18:44;27.80;99.90
12025;DHT22;6073;53.230;10.444;2023-06-10T09:21:10;28.00;99.90
12025;DHT22;6073;53.230;10.444;2023-06-10T09:23:37;28.00;99.90
12025;DHT22;6073;53.230;10.444;2023-06-10T09:26:02;27.90;99.90
12025;DHT22;6073;53.230;10.444;2023-06-10T09:28:33;27.80;99.90
12025;DHT22;6073;53.230;10.444;2023-06-10T09:31:06;27.60;99.90
12025;DHT22;6073;53.230;10.444;2023-06-10T09:33:32;27.60;99.90
12025;DHT22;6073;53.230;10.444;2023-06-10T09:36:01;27.80;99.90
12025;DHT22;6073;53.230;10.444;2023-06-10T09:38:31;27.40;99.90
12025;DHT22;6073;53.230;10.444;2023-06-10T09:40:57;27.00;99.90
12025;DHT22;6073;53.230;10.444;2023-06-10T09:43:23;26.80;99.90
12025;DHT22;6073;53.230;10.444;2023-06-10T09:45:49;27.00;99.90
12025;DHT22;6073;53.230;10.444;2023-06-10T09:48:15;26.70;99.90
12025;DHT22;6073;53.230;10.444;2023-06-10T09:50:44;27.00;99.90
12025;DHT22;6073;53.230;10.444;2023-06-10T09:53:10;27.00;99.90
12025;DHT22;6073;53.230;10.444;2023-06-10T09:55:39;27.00;99.90
12025;DHT22;6073;53.230;10.444;2023-06-10T09:58:06;27.10;99.90
12025;DHT22;6073;53.230;10.444;2023-06-10T10:00:33;27.00;99.90
12025;DHT22;6073;53.230;10.444;2023-06-10T10:02:58;27.10;99.90
12025;DHT22;6073;53.230;10.444;2023-06-10T10:05:24;26.90;99.90
12025;DHT22;6073;53.230;10.444;2023-06-10T10:07:50;27.00;99.90
12025;DHT22;6073;53.230;10.444;2023-06-10T10:10:17;27.10;99.90
12025;DHT22;6073;53.230;10.444;2023-06-10T10:12:50;27.10;99.90
12025;DHT22;6073;53.230;10.444;2023-06-10T10:15:17;26.90;99.90
12025;DHT22;6073;53.230;10.444;2023-06-10T10:18:09;27.20;99.90
12025;DHT22;6073;53.230;10.444;2023-06-10T10:20:38;27.40;99.90
12025;DHT22;6073;53.230;10.444;2023-06-10T10:23:08;27.50;99.90
12025;DHT22;6073;53.230;10.444;2023-06-10T10:25:40;27.80;99.90
12025;DHT22;6073;53.230;10.444;2023-06-10T10:28:11;28.00;99.90
12025;DHT22;6073;53.230;10.444;2023-06-10T10:30:42;28.20;99.90
12025;DHT22;6073;53.230;10.444;2023-06-10T10:33:13;28.10;99.90
12025;DHT22;6073;53.230;10.444;2023-06-10T10:35:41;28.00;99.90
12025;DHT22;6073;53.230;10.444;2023-06-10T10:38:07;28.30;99.90
12025;DHT22;6073;53.230;10.444;2023-06-10T10:40:33;28.40;99.90
12025;DHT22;6073;53.230;10.444;2023-06-10T10:43:00;28.30;99.90
12025;DHT22;6073;53.230;10.444;2023-06-10T10:45:28;28.20;99.90
12025;DHT22;6073;53.230;10.444;2023-06-10T10:47:54;28.30;99.90
12025;DHT22;6073;53.230;10.444;2023-06-10T10:50:21;28.30;99.90
12025;DHT22;6073;53.230;10.444;2023-06-10T10:53:00;28.20;99.90
12025;DHT22;6073;53.230;10.444;2023-06-10T10:55:27;28.40;99.90
12025;DHT22;6073;53.230;10.444;2023-06-10T10:58:10;28.70;99.90
12025;DHT22;6073;53.230;10.444;2023-06-10T11:00:44;28.50;99.90
12025;DHT22;6073;53.230;10.444;2023-06-10T11:03:14;28.80;99.90
12025;DHT22;6073;53.230;10.444;2023-06-10T11:05:42;29.00;99.90
12025;DHT22;6073;53.230;10.444;2023-06-10T11:08:10;29.10;99.90
12025;DHT22;6073;53.230;10.444;2023-06-10T11:10:37;29.30;99.90
12025;DHT22;6073;53.230;10.444;2023-06-10T11:13:13;29.30;99.90
12025;DHT22;6073;53.230;10.444;2023-06-10T11:15:50;29.10;99.90
12025;DHT22;6073;53.230;10.444;2023-06-10T11:18:38;28.90;99.90
12025;DHT22;6073;53.230;10.444;2023-06-10T11:21:05;28.80;99.90
12025;DHT22;6073;53.230;10.444;2023-06-10T11:23:38;29.00;99.90
12025;DHT22;6073;53.230;10.444;2023-06-10T11:28:39;29.00;99.90
12025;DHT22;6073;53.230;10.444;2023-06-10T11:31:05;29.10;99.90
12025;DHT22;6073;53.230;10.444;2023-06-10T11:33:31;29.40;99.90
12025;DHT22;6073;53.230;10.444;2023-06-10T11:35:56;29.60;99.90
12025;DHT22;6073;53.230;10.444;2023-06-10T11:38:23;29.70;99.90
12025;DHT22;6073;53.230;10.444;2023-06-10T11:40:49;29.70;99.90
12025;DHT22;6073;53.230;10.444;2023-06-10T11:43:19;29.80;99.90
12025;DHT22;6073;53.230;10.444;2023-06-10T11:45:45;29.80;99.90
12025;DHT22;6073;53.230;10.444;2023-06-10T11:48:12;29.80;99.90
12025;DHT22;6073;53.230;10.444;2023-06-10T11:50:38;29.80;99.90
12025;DHT22;6073;53.230;10.444;2023-06-10T11:53:04;30.00;99.90
12025;DHT22;6073;53.230;10.444;2023-06-10T11:55:44;30.20;99.90
12025;DHT22;6073;53.230;10.444;2023-06-10T11:58:17;30.40;99.90
12025;DHT22;6073;53.230;10.444;2023-06-10T12:00:47;30.20;99.90
12025;DHT22;6073;53.230;10.444;2023-06-10T12:03:13;30.10;99.90
12025;DHT22;6073;53.230;10.444;2023-06-10T12:05:38;30.10;99.90
12025;DHT22;6073;53.230;10.444;2023-06-10T12:08:11;30.10;99.90
12025;DHT22;6073;53.230;10.444;2023-06-10T12:10:41;30.00;99.90
12025;DHT22;6073;53.230;10.444;2023-06-10T12:13:08;30.10;99.90
12025;DHT22;6073;53.230;10.444;2023-06-10T12:15:34;30.20;99.90
12025;DHT22;6073;53.230;10.444;2023-06-10T12:18:00;29.90;99.90
12025;DHT22;6073;53.230;10.444;2023-06-10T12:20:28;30.10;99.90
12025;DHT22;6073;53.230;10.444;2023-06-10T12:22:53;30.20;99.90
12025;DHT22;6073;53.230;10.444;2023-06-10T12:25:25;30.30;99.90
12025;DHT22;6073;53.230;10.444;2023-06-10T12:27:55;30.20;99.90
12025;DHT22;6073;53.230;10.444;2023-06-10T12:30:22;30.20;99.90
12025;DHT22;6073;53.230;10.444;2023-06-10T12:32:48;30.10;99.90
12025;DHT22;6073;53.230;10.444;2023-06-10T12:35:18;30.40;99.90
12025;DHT22;6073;53.230;10.444;2023-06-10T12:38:14;30.40;99.90
12025;DHT22;6073;53.230;10.444;2023-06-10T12:40:47;30.40;99.90
12025;DHT22;6073;53.230;10.444;2023-06-10T12:43:12;30.50;99.90
12025;DHT22;6073;53.230;10.444;2023-06-10T12:45:39;30.70;99.90
12025;DHT22;6073;53.230;10.444;2023-06-10T12:50:41;30.40;99.90
12025;DHT22;6073;53.230;10.444;2023-06-10T12:53:08;30.40;99.90
12025;DHT22;6073;53.230;10.444;2023-06-10T12:55:33;30.30;99.70
12025;DHT22;6073;53.230;10.444;2023-06-10T12:58:00;30.30;99.80
12025;DHT22;6073;53.230;10.444;2023-06-10T13:00:27;30.30;99.70
12025;DHT22;6073;53.230;10.444;2023-06-10T13:02:59;30.40;99.70
12025;DHT22;6073;53.230;10.444;2023-06-10T13:05:26;30.30;99.30
12025;DHT22;6073;53.230;10.444;2023-06-10T13:07:51;30.50;99.20
12025;DHT22;6073;53.230;10.444;2023-06-10T13:10:17;30.60;99.40
12025;DHT22;6073;53.230;10.444;2023-06-10T13:12:44;30.70;99.10
12025;DHT22;6073;53.230;10.444;2023-06-10T13:15:10;30.60;99.40
12025;DHT22;6073;53.230;10.444;2023-06-10T13:17:36;30.60;99.40
12025;DHT22;6073;53.230;10.444;2023-06-10T13:20:05;30.60;99.40
12025;DHT22;6073;53.230;10.444;2023-06-10T13:22:32;30.70;98.70
12025;DHT22;6073;53.230;10.444;2023-06-10T13:24:58;30.70;98.90
12025;DHT22;6073;53.230;10.444;2023-06-10T13:27:25;30.70;98.80
12025;DHT22;6073;53.230;10.444;2023-06-10T13:29:50;30.70;98.50
12025;DHT22;6073;53.230;10.444;2023-06-10T13:32:16;30.50;98.70
12025;DHT22;6073;53.230;10.444;2023-06-10T13:34:41;30.70;98.60
12025;DHT22;6073;53.230;10.444;2023-06-10T13:37:07;30.70;98.60
12025;DHT22;6073;53.230;10.444;2023-06-10T13:39:32;31.00;97.80
12025;DHT22;6073;53.230;10.444;2023-06-10T13:41:58;30.80;97.20
12025;DHT22;6073;53.230;10.444;2023-06-10T13:44:23;30.90;98.20
12025;DHT22;6073;53.230;10.444;2023-06-10T13:46:49;30.60;97.80
12025;DHT22;6073;53.230;10.444;2023-06-10T13:49:14;30.30;98.40
12025;DHT22;6073;53.230;10.444;2023-06-10T13:51:40;30.00;98.40
12025;DHT22;6073;53.230;10.444;2023-06-10T13:54:05;30.00;98.80
12025;DHT22;6073;53.230;10.444;2023-06-10T13:56:31;30.40;98.40
12025;DHT22;6073;53.230;10.444;2023-06-10T13:58:56;30.60;99.00
12025;DHT22;6073;53.230;10.444;2023-06-10T14:01:22;30.90;98.30
12025;DHT22;6073;53.230;10.444;2023-06-10T14:03:47;31.20;97.90
12025;DHT22;6073;53.230;10.444;2023-06-10T14:06:13;31.00;97.40
12025;DHT22;6073;53.230;10.444;2023-06-10T14:08:43;30.90;96.00
12025;DHT22;6073;53.230;10.444;2023-06-10T14:11:09;30.90;96.70
12025;DHT22;6073;53.230;10.444;2023-06-10T14:13:34;31.20;96.70
12025;DHT22;6073;53.230;10.444;2023-06-10T14:16:00;31.50;96.20
12025;DHT22;6073;53.230;10.444;2023-06-10T14:18:28;31.30;96.90
12025;DHT22;6073;53.230;10.444;2023-06-10T14:20:53;31.30;95.70
12025;DHT22;6073;53.230;10.444;2023-06-10T14:23:19;31.00;95.80
12025;DHT22;6073;53.230;10.444;2023-06-10T14:25:44;30.70;96.40
12025;DHT22;6073;53.230;10.444;2023-06-10T14:28:10;30.80;96.10
12025;DHT22;6073;53.230;10.444;2023-06-10T14:30:35;30.50;96.20
12025;DHT22;6073;53.230;10.444;2023-06-10T14:33:01;30.20;95.90
12025;DHT22;6073;53.230;10.444;2023-06-10T14:35:27;30.10;95.90
12025;DHT22;6073;53.230;10.444;2023-06-10T14:37:52;29.70;95.90
12025;DHT22;6073;53.230;10.444;2023-06-10T14:40:18;29.80;96.70
12025;DHT22;6073;53.230;10.444;2023-06-10T14:42:43;30.30;95.70
12025;DHT22;6073;53.230;10.444;2023-06-10T14:45:09;30.50;94.90
12025;DHT22;6073;53.230;10.444;2023-06-10T14:47:35;30.60;95.00
12025;DHT22;6073;53.230;10.444;2023-06-10T14:50:01;30.60;95.50
12025;DHT22;6073;53.230;10.444;2023-06-10T14:52:26;30.50;95.50
12025;DHT22;6073;53.230;10.444;2023-06-10T14:54:52;30.70;95.20
12025;DHT22;6073;53.230;10.444;2023-06-10T14:57:17;30.90;95.60
12025;DHT22;6073;53.230;10.444;2023-06-10T14:59:43;31.10;95.50
12025;DHT22;6073;53.230;10.444;2023-06-10T15:02:08;31.00;95.00
12025;DHT22;6073;53.230;10.444;2023-06-10T15:04:34;30.60;95.10
12025;DHT22;6073;53.230;10.444;2023-06-10T15:07:00;30.30;95.50
12025;DHT22;6073;53.230;10.444;2023-06-10T15:09:25;30.60;95.80
12025;DHT22;6073;53.230;10.444;2023-06-10T15:11:51;30.90;95.70
12025;DHT22;6073;53.230;10.444;2023-06-10T15:14:16;31.10;95.40
12025;DHT22;6073;53.230;10.444;2023-06-10T15:16:42;31.20;95.20
12025;DHT22;6073;53.230;10.444;2023-06-10T15:19:07;31.30;94.50
12025;DHT22;6073;53.230;10.444;2023-06-10T15:21:34;31.40;94.20
12025;DHT22;6073;53.230;10.444;2023-06-10T15:24:01;31.20;94.40
12025;DHT22;6073;53.230;10.444;2023-06-10T15:26:27;31.00;94.20
12025;DHT22;6073;53.230;10.444;2023-06-10T15:28:53;30.50;94.10
12025;DHT22;6073;53.230;10.444;2023-06-10T15:31:18;29.90;94.40
12025;DHT22;6073;53.230;10.444;2023-06-10T15:33:44;29.50;94.60
12025;DHT22;6073;53.230;10.444;2023-06-10T15:36:09;29.30;94.70
12025;DHT22;6073;53.230;10.444;2023-06-10T15:38:35;29.20;94.90
12025;DHT22;6073;53.230;10.444;2023-06-10T15:41:00;29.10;95.10
12025;DHT22;6073;53.230;10.444;2023-06-10T15:43:26;29.30;95.40
12025;DHT22;6073;53.230;10.444;2023-06-10T15:45:51;29.50;95.60
12025;DHT22;6073;53.230;10.444;2023-06-10T15:48:17;30.00;95.70
12025;DHT22;6073;53.230;10.444;2023-06-10T15:50:42;30.40;94.80